sensor_id;sensor_type;location;lat;lon;timestamp;P1;durP1;ratioP1;P2;durP2;ratioP2
12660;SDS011;39039;51.802;5.710;2022-07-22T00:00:57;5.30;;;1.90;;
12660;SDS011;39039;51.802;5.710;2022-07-22T00:03:24;7.10;;;1.83;;
12660;SDS011;39039;51.802;5.710;2022-07-22T00:05:51;5.70;;;2.00;;
12660;SDS011;39039;51.802;5.710;2022-07-22T00:08:19;9.90;;;1.93;;
12660;SDS011;39039;51.802;5.710;2022-07-22T00:10:46;8.23;;;2.10;;
12660;SDS011;39039;51.802;5.710;2022-07-22T00:13:13;6.93;;;2.05;;
12660;SDS011;39039;51.802;5.710;2022-07-22T00:15:40;7.43;;;1.73;;
12660;SDS011;39039;51.802;5.710;2022-07-22T00:18:07;7.13;;;1.90;;
12660;SDS011;39039;51.802;5.710;2022-07-22T00:20:35;7.33;;;2.23;;
12660;SDS011;39039;51.802;5.710;2022-07-22T00:23:02;7.33;;;2.50;;
12660;SDS011;39039;51.802;5.710;2022-07-22T00:25:30;6.40;;;2.20;;
12660;SDS011;39039;51.802;5.710;2022-07-22T00:27:57;5.77;;;1.93;;
12660;SDS011;39039;51.802;5.710;2022-07-22T00:30:24;9.60;;;2.47;;
12660;SDS011;39039;51.802;5.710;2022-07-22T00:32:51;6.70;;;2.07;;
12660;SDS011;39039;51.802;5.710;2022-07-22T00:35:18;4.93;;;1.77;;
12660;SDS011;39039;51.802;5.710;2022-07-22T00:37:45;6.00;;;2.30;;
12660;SDS011;39039;51.802;5.710;2022-07-22T00:40:12;5.77;;;2.20;;
12660;SDS011;39039;51.802;5.710;2022-07-22T00:42:41;8.47;;;2.03;;
12660;SDS011;39039;51.802;5.710;2022-07-22T00:45:08;7.65;;;2.38;;
12660;SDS011;39039;51.802;5.710;2022-07-22T00:47:37;6.57;;;2.43;;
12660;SDS011;39039;51.802;5.710;2022-07-22T00:50:05;7.13;;;2.20;;
12660;SDS011;39039;51.802;5.710;2022-07-22T00:52:32;11.50;;;2.20;;
12660;SDS011;39039;51.802;5.710;2022-07-22T00:55:00;9.70;;;3.20;;
12660;SDS011;39039;51.802;5.710;2022-07-22T00:57:27;3.53;;;1.73;;
12660;SDS011;39039;51.802;5.710;2022-07-22T00:59:56;4.80;;;2.00;;
12660;SDS011;39039;51.802;5.710;2022-07-22T01:02:23;6.33;;;1.93;;
12660;SDS011;39039;51.802;5.710;2022-07-22T01:04:50;6.53;;;2.10;;
12660;SDS011;39039;51.802;5.710;2022-07-22T01:07:17;7.55;;;1.90;;
12660;SDS011;39039;51.802;5.710;2022-07-22T01:09:45;8.67;;;2.17;;
12660;SDS011;39039;51.802;5.710;2022-07-22T01:12:12;8.57;;;2.87;;
12660;SDS011;39039;51.802;5.710;2022-07-22T01:14:39;4.47;;;2.13;;
12660;SDS011;39039;51.802;5.710;2022-07-22T01:17:07;3.93;;;2.10;;
12660;SDS011;39039;51.802;5.710;2022-07-22T01:19:35;10.73;;;2.60;;
12660;SDS011;39039;51.802;5.710;2022-07-22T01:22:04;4.43;;;1.90;;
12660;SDS011;39039;51.802;5.710;2022-07-22T01:24:31;3.80;;;2.20;;
12660;SDS011;39039;51.802;5.710;2022-07-22T01:26:58;7.13;;;1.97;;
12660;SDS011;39039;51.802;5.710;2022-07-22T01:29:25;6.80;;;1.80;;
12660;SDS011;39039;51.802;5.710;2022-07-22T01:31:52;4.83;;;2.17;;
12660;SDS011;39039;51.802;5.710;2022-07-22T01:34:19;5.73;;;2.07;;
12660;SDS011;39039;51.802;5.710;2022-07-22T01:36:46;5.00;;;2.03;;
12660;SDS011;39039;51.802;5.710;2022-07-22T01:39:15;5.27;;;2.17;;
12660;SDS011;39039;51.802;5.710;2022-07-22T01:41:42;5.40;;;2.00;;
12660;SDS011;39039;51.802;5.710;2022-07-22T01:44:09;6.97;;;1.90;;
12660;SDS011;39039;51.802;5.710;2022-07-22T01:46:36;4.07;;;2.00;;
12660;SDS011;39039;51.802;5.710;2022-07-22T01:49:03;4.90;;;2.43;;
12660;SDS011;39039;51.802;5.710;2022-07-22T01:51:31;4.30;;;2.13;;
12660;SDS011;39039;51.802;5.710;2022-07-22T01:53:58;5.37;;;2.13;;
12660;SDS011;39039;51.802;5.710;2022-07-22T01:56:26;4.90;;;1.97;;
12660;SDS011;39039;51.802;5.710;2022-07-22T01:58:53;6.60;;;2.10;;
12660;SDS011;39039;51.802;5.710;2022-07-22T02:01:20;5.07;;;2.17;;
12660;SDS011;39039;51.802;5.710;2022-07-22T02:03:49;4.60;;;1.93;;
12660;SDS011;39039;51.802;5.710;2022-07-22T02:06:16;6.70;;;2.30;;
12660;SDS011;39039;51.802;5.710;2022-07-22T02:08:43;7.07;;;1.80;;
12660;SDS011;39039;51.802;5.710;2022-07-22T02:11:10;6.43;;;1.77;;
12660;SDS011;39039;51.802;5.710;2022-07-22T02:13:38;4.33;;;2.87;;
12660;SDS011;39039;51.802;5.710;2022-07-22T02:16:05;5.60;;;2.03;;
12660;SDS011;39039;51.802;5.710;2022-07-22T02:18:33;5.90;;;1.80;;
12660;SDS011;39039;51.802;5.710;2022-07-22T02:21:00;5.13;;;1.50;;
12660;SDS011;39039;51.802;5.710;2022-07-22T02:23:27;4.17;;;1.50;;
12660;SDS011;39039;51.802;5.710;2022-07-22T02:25:54;4.43;;;1.63;;
12660;SDS011;39039;51.802;5.710;2022-07-22T02:28:21;9.70;;;1.50;;
12660;SDS011;39039;51.802;5.710;2022-07-22T02:30:49;3.97;;;1.70;;
12660;SDS011;39039;51.802;5.710;2022-07-22T02:33:16;4.10;;;1.67;;
12660;SDS011;39039;51.802;5.710;2022-07-22T02:35:43;7.07;;;1.50;;
12660;SDS011;39039;51.802;5.710;2022-07-22T02:38:10;5.10;;;1.80;;
12660;SDS011;39039;51.802;5.710;2022-07-22T02:40:37;7.30;;;1.63;;
12660;SDS011;39039;51.802;5.710;2022-07-22T02:43:04;2.43;;;1.30;;
12660;SDS011;39039;51.802;5.710;2022-07-22T02:45:32;5.90;;;1.80;;
12660;SDS011;39039;51.802;5.710;2022-07-22T02:48:00;3.60;;;1.33;;
12660;SDS011;39039;51.802;5.710;2022-07-22T02:50:27;6.23;;;1.90;;
12660;SDS011;39039;51.802;5.710;2022-07-22T02:52:54;4.43;;;1.70;;
12660;SDS011;39039;51.802;5.710;2022-07-22T02:55:21;6.67;;;1.60;;
12660;SDS011;39039;51.802;5.710;2022-07-22T02:57:48;5.33;;;1.70;;
12660;SDS011;39039;51.802;5.710;2022-07-22T03:00:15;4.83;;;1.47;;
12660;SDS011;39039;51.802;5.710;2022-07-22T03:02:42;5.30;;;1.60;;
12660;SDS011;39039;51.802;5.710;2022-07-22T03:05:11;4.33;;;1.53;;
12660;SDS011;39039;51.802;5.710;2022-07-22T03:07:38;4.10;;;1.70;;
12660;SDS011;39039;51.802;5.710;2022-07-22T03:10:05;8.23;;;1.97;;
12660;SDS011;39039;51.802;5.710;2022-07-22T03:12:33;4.37;;;2.00;;
12660;SDS011;39039;51.802;5.710;2022-07-22T03:15:00;7.17;;;2.73;;
12660;SDS011;39039;51.802;5.710;2022-07-22T03:17:27;4.30;;;1.57;;
12660;SDS011;39039;51.802;5.710;2022-07-22T03:19:54;5.50;;;1.47;;
12660;SDS011;39039;51.802;5.710;2022-07-22T03:22:22;6.07;;;1.57;;
12660;SDS011;39039;51.802;5.710;2022-07-22T03:24:50;3.20;;;1.50;;
12660;SDS011;39039;51.802;5.710;2022-07-22T03:27:17;5.93;;;1.40;;
12660;SDS011;39039;51.802;5.710;2022-07-22T03:29:44;2.87;;;1.10;;
12660;SDS011;39039;51.802;5.710;2022-07-22T03:32:11;4.20;;;1.27;;
12660;SDS011;39039;51.802;5.710;2022-07-22T03:34:38;5.20;;;1.53;;
12660;SDS011;39039;51.802;5.710;2022-07-22T03:37:05;2.60;;;1.10;;
12660;SDS011;39039;51.802;5.710;2022-07-22T03:39:33;4.17;;;1.30;;
12660;SDS011;39039;51.802;5.710;2022-07-22T03:42:00;3.33;;;1.20;;
12660;SDS011;39039;51.802;5.710;2022-07-22T03:44:27;3.33;;;1.40;;
12660;SDS011;39039;51.802;5.710;2022-07-22T03:46:54;3.10;;;1.37;;
12660;SDS011;39039;51.802;5.710;2022-07-22T03:49:21;5.47;;;1.57;;
12660;SDS011;39039;51.802;5.710;2022-07-22T03:51:48;5.50;;;1.23;;
12660;SDS011;39039;51.802;5.710;2022-07-22T03:54:15;3.73;;;1.40;;
12660;SDS011;39039;51.802;5.710;2022-07-22T03:56:43;5.17;;;1.33;;
12660;SDS011;39039;51.802;5.710;2022-07-22T03:59:10;3.60;;;1.27;;
12660;SDS011;39039;51.802;5.710;2022-07-22T04:01:37;3.27;;;1.30;;
12660;SDS011;39039;51.802;5.710;2022-07-22T04:04:05;3.63;;;1.10;;
12660;SDS011;39039;51.802;5.710;2022-07-22T04:06:32;2.87;;;1.17;;
12660;SDS011;39039;51.802;5.710;2022-07-22T04:08:59;4.93;;;1.37;;
12660;SDS011;39039;51.802;5.710;2022-07-22T04:11:26;4.37;;;1.53;;
12660;SDS011;39039;51.802;5.710;2022-07-22T04:13:55;3.20;;;1.23;;
12660;SDS011;39039;51.802;5.710;2022-07-22T04:16:22;2.37;;;1.13;;
12660;SDS011;39039;51.802;5.710;2022-07-22T04:18:49;2.70;;;1.37;;
12660;SDS011;39039;51.802;5.710;2022-07-22T04:21:16;2.77;;;1.00;;
12660;SDS011;39039;51.802;5.710;2022-07-22T04:23:43;2.20;;;1.40;;
12660;SDS011;39039;51.802;5.710;2022-07-22T04:26:10;3.70;;;1.40;;
12660;SDS011;39039;51.802;5.710;2022-07-22T04:28:37;2.80;;;1.43;;
12660;SDS011;39039;51.802;5.710;2022-07-22T04:31:05;2.17;;;1.30;;
12660;SDS011;39039;51.802;5.710;2022-07-22T04:33:32;2.03;;;0.97;;
12660;SDS011;39039;51.802;5.710;2022-07-22T04:36:00;3.67;;;1.57;;
12660;SDS011;39039;51.802;5.710;2022-07-22T04:38:27;2.00;;;1.10;;
12660;SDS011;39039;51.802;5.710;2022-07-22T04:40:53;6.00;;;1.57;;
12660;SDS011;39039;51.802;5.710;2022-07-22T04:43:20;3.67;;;1.50;;
12660;SDS011;39039;51.802;5.710;2022-07-22T04:45:48;3.40;;;1.50;;
12660;SDS011;39039;51.802;5.710;2022-07-22T04:48:16;3.20;;;1.67;;
12660;SDS011;39039;51.802;5.710;2022-07-22T04:50:43;6.47;;;1.30;;
12660;SDS011;39039;51.802;5.710;2022-07-22T04:53:10;8.43;;;1.90;;
12660;SDS011;39039;51.802;5.710;2022-07-22T04:55:37;4.78;;;1.67;;
12660;SDS011;39039;51.802;5.710;2022-07-22T04:58:04;3.00;;;1.57;;
12660;SDS011;39039;51.802;5.710;2022-07-22T05:00:31;3.17;;;1.40;;
12660;SDS011;39039;51.802;5.710;2022-07-22T05:02:58;5.57;;;1.85;;
12660;SDS011;39039;51.802;5.710;2022-07-22T05:05:27;5.23;;;1.50;;
12660;SDS011;39039;51.802;5.710;2022-07-22T05:07:54;4.87;;;1.97;;
12660;SDS011;39039;51.802;5.710;2022-07-22T05:10:21;6.40;;;1.50;;
12660;SDS011;39039;51.802;5.710;2022-07-22T05:12:48;3.20;;;1.60;;
12660;SDS011;39039;51.802;5.710;2022-07-22T05:15:15;2.75;;;1.30;;
12660;SDS011;39039;51.802;5.710;2022-07-22T05:17:42;3.97;;;1.45;;
12660;SDS011;39039;51.802;5.710;2022-07-22T05:20:10;4.95;;;1.38;;
12660;SDS011;39039;51.802;5.710;2022-07-22T05:22:38;3.75;;;1.30;;
12660;SDS011;39039;51.802;5.710;2022-07-22T05:25:05;6.45;;;1.70;;
12660;SDS011;39039;51.802;5.710;2022-07-22T05:27:33;4.20;;;1.38;;
12660;SDS011;39039;51.802;5.710;2022-07-22T05:30:00;3.50;;;1.45;;
12660;SDS011;39039;51.802;5.710;2022-07-22T05:32:27;5.13;;;1.50;;
12660;SDS011;39039;51.802;5.710;2022-07-22T05:34:54;7.55;;;2.03;;
12660;SDS011;39039;51.802;5.710;2022-07-22T05:37:21;3.92;;;2.15;;
12660;SDS011;39039;51.802;5.710;2022-07-22T05:39:49;5.40;;;2.03;;
12660;SDS011;39039;51.802;5.710;2022-07-22T05:42:16;7.85;;;2.00;;
12660;SDS011;39039;51.802;5.710;2022-07-22T05:44:43;4.97;;;2.25;;
12660;SDS011;39039;51.802;5.710;2022-07-22T05:47:11;4.57;;;2.55;;
12660;SDS011;39039;51.802;5.710;2022-07-22T05:49:38;5.22;;;2.42;;
12660;SDS011;39039;51.802;5.710;2022-07-22T05:52:05;5.25;;;3.05;;
12660;SDS011;39039;51.802;5.710;2022-07-22T05:54:32;7.25;;;2.45;;
12660;SDS011;39039;51.802;5.710;2022-07-22T05:57:00;4.25;;;2.10;;
12660;SDS011;39039;51.802;5.710;2022-07-22T05:59:27;5.43;;;2.28;;
12660;SDS011;39039;51.802;5.710;2022-07-22T06:01:54;3.47;;;1.90;;
12660;SDS011;39039;51.802;5.710;2022-07-22T06:04:21;3.08;;;2.03;;
12660;SDS011;39039;51.802;5.710;2022-07-22T06:06:48;4.50;;;2.03;;
12660;SDS011;39039;51.802;5.710;2022-07-22T06:09:15;3.85;;;1.90;;
12660;SDS011;39039;51.802;5.710;2022-07-22T06:11:42;4.55;;;1.70;;
12660;SDS011;39039;51.802;5.710;2022-07-22T06:14:11;3.70;;;1.90;;
12660;SDS011;39039;51.802;5.710;2022-07-22T06:16:38;4.43;;;1.92;;
12660;SDS011;39039;51.802;5.710;2022-07-22T06:19:05;3.88;;;1.60;;
12660;SDS011;39039;51.802;5.710;2022-07-22T06:21:32;8.57;;;3.80;;
12660;SDS011;39039;51.802;5.710;2022-07-22T06:23:59;3.72;;;2.05;;
12660;SDS011;39039;51.802;5.710;2022-07-22T06:26:26;4.82;;;1.75;;
12660;SDS011;39039;51.802;5.710;2022-07-22T06:28:53;3.88;;;1.73;;
12660;SDS011;39039;51.802;5.710;2022-07-22T06:31:21;3.70;;;1.60;;
12660;SDS011;39039;51.802;5.710;2022-07-22T06:33:48;5.78;;;1.38;;
12660;SDS011;39039;51.802;5.710;2022-07-22T06:36:15;3.92;;;1.33;;
12660;SDS011;39039;51.802;5.710;2022-07-22T06:38:42;2.42;;;1.30;;
12660;SDS011;39039;51.802;5.710;2022-07-22T06:41:10;4.40;;;1.67;;
12660;SDS011;39039;51.802;5.710;2022-07-22T06:43:38;3.67;;;1.00;;
12660;SDS011;39039;51.802;5.710;2022-07-22T06:46:06;4.32;;;0.90;;
12660;SDS011;39039;51.802;5.710;2022-07-22T06:48:34;3.75;;;0.93;;
12660;SDS011;39039;51.802;5.710;2022-07-22T06:51:01;5.70;;;0.95;;
12660;SDS011;39039;51.802;5.710;2022-07-22T06:53:28;4.32;;;0.73;;
12660;SDS011;39039;51.802;5.710;2022-07-22T06:55:55;1.85;;;0.80;;
12660;SDS011;39039;51.802;5.710;2022-07-22T06:58:22;3.30;;;0.80;;
12660;SDS011;39039;51.802;5.710;2022-07-22T07:00:49;3.50;;;0.88;;
12660;SDS011;39039;51.802;5.710;2022-07-22T07:03:16;4.93;;;1.15;;
12660;SDS011;39039;51.802;5.710;2022-07-22T07:05:44;3.33;;;0.80;;
12660;SDS011;39039;51.802;5.710;2022-07-22T07:08:11;2.95;;;1.00;;
12660;SDS011;39039;51.802;5.710;2022-07-22T07:10:38;2.25;;;0.90;;
12660;SDS011;39039;51.802;5.710;2022-07-22T07:13:05;2.88;;;0.90;;
12660;SDS011;39039;51.802;5.710;2022-07-22T07:15:32;0.65;;;0.50;;
12660;SDS011;39039;51.802;5.710;2022-07-22T07:17:59;3.63;;;0.80;;
12660;SDS011;39039;51.802;5.710;2022-07-22T07:20:26;1.27;;;0.60;;
12660;SDS011;39039;51.802;5.710;2022-07-22T07:22:55;3.13;;;0.90;;
12660;SDS011;39039;51.802;5.710;2022-07-22T07:25:22;1.38;;;0.70;;
12660;SDS011;39039;51.802;5.710;2022-07-22T07:27:49;3.13;;;0.60;;
12660;SDS011;39039;51.802;5.710;2022-07-22T07:30:16;3.40;;;0.80;;
12660;SDS011;39039;51.802;5.710;2022-07-22T07:32:43;5.07;;;1.00;;
12660;SDS011;39039;51.802;5.710;2022-07-22T07:35:10;3.47;;;0.98;;
12660;SDS011;39039;51.802;5.710;2022-07-22T07:37:37;3.80;;;0.95;;
12660;SDS011;39039;51.802;5.710;2022-07-22T07:40:06;1.85;;;0.60;;
12660;SDS011;39039;51.802;5.710;2022-07-22T07:42:34;4.68;;;0.80;;
12660;SDS011;39039;51.802;5.710;2022-07-22T07:45:01;2.25;;;0.60;;
12660;SDS011;39039;51.802;5.710;2022-07-22T07:47:29;2.55;;;0.65;;
12660;SDS011;39039;51.802;5.710;2022-07-22T07:49:56;1.48;;;0.63;;
12660;SDS011;39039;51.802;5.710;2022-07-22T07:52:25;0.98;;;0.80;;
12660;SDS011;39039;51.802;5.710;2022-07-22T07:54:52;2.25;;;0.60;;
12660;SDS011;39039;51.802;5.710;2022-07-22T07:57:21;3.60;;;0.60;;
12660;SDS011;39039;51.802;5.710;2022-07-22T07:59:49;2.05;;;0.73;;
12660;SDS011;39039;51.802;5.710;2022-07-22T08:02:16;1.30;;;0.60;;
12660;SDS011;39039;51.802;5.710;2022-07-22T08:04:43;7.82;;;0.93;;
12660;SDS011;39039;51.802;5.710;2022-07-22T08:07:09;2.00;;;0.85;;
12660;SDS011;39039;51.802;5.710;2022-07-22T08:09:36;2.05;;;0.90;;
12660;SDS011;39039;51.802;5.710;2022-07-22T08:12:04;2.08;;;0.73;;
12660;SDS011;39039;51.802;5.710;2022-07-22T08:14:33;1.70;;;0.60;;
12660;SDS011;39039;51.802;5.710;2022-07-22T08:17:00;1.92;;;0.52;;
12660;SDS011;39039;51.802;5.710;2022-07-22T08:19:27;1.42;;;0.57;;
12660;SDS011;39039;51.802;5.710;2022-07-22T08:21:54;1.42;;;0.57;;
12660;SDS011;39039;51.802;5.710;2022-07-22T08:24:21;1.92;;;0.40;;
12660;SDS011;39039;51.802;5.710;2022-07-22T08:26:48;1.35;;;0.43;;
12660;SDS011;39039;51.802;5.710;2022-07-22T08:29:16;0.70;;;0.50;;
12660;SDS011;39039;51.802;5.710;2022-07-22T08:31:44;2.40;;;0.82;;
12660;SDS011;39039;51.802;5.710;2022-07-22T08:34:11;1.73;;;0.60;;
12660;SDS011;39039;51.802;5.710;2022-07-22T08:36:38;1.10;;;0.60;;
12660;SDS011;39039;51.802;5.710;2022-07-22T08:39:05;2.67;;;0.60;;
12660;SDS011;39039;51.802;5.710;2022-07-22T08:41:33;1.25;;;0.57;;
12660;SDS011;39039;51.802;5.710;2022-07-22T08:44:01;4.70;;;2.15;;
12660;SDS011;39039;51.802;5.710;2022-07-22T08:46:29;1.08;;;0.50;;
12660;SDS011;39039;51.802;5.710;2022-07-22T08:48:57;2.45;;;0.60;;
12660;SDS011;39039;51.802;5.710;2022-07-22T08:51:25;1.50;;;0.70;;
12660;SDS011;39039;51.802;5.710;2022-07-22T08:53:53;2.55;;;0.68;;
12660;SDS011;39039;51.802;5.710;2022-07-22T08:56:20;0.85;;;0.40;;
12660;SDS011;39039;51.802;5.710;2022-07-22T08:58:47;0.60;;;0.30;;
12660;SDS011;39039;51.802;5.710;2022-07-22T09:01:15;2.67;;;1.13;;
12660;SDS011;39039;51.802;5.710;2022-07-22T09:03:46;2.53;;;0.70;;
12660;SDS011;39039;51.802;5.710;2022-07-22T09:06:15;1.52;;;0.70;;
12660;SDS011;39039;51.802;5.710;2022-07-22T09:08:52;1.70;;;0.60;;
12660;SDS011;39039;51.802;5.710;2022-07-22T09:11:20;2.63;;;0.50;;
12660;SDS011;39039;51.802;5.710;2022-07-22T09:13:47;2.38;;;0.93;;
12660;SDS011;39039;51.802;5.710;2022-07-22T09:16:15;1.15;;;0.55;;
12660;SDS011;39039;51.802;5.710;2022-07-22T09:18:46;5.22;;;1.60;;
12660;SDS011;39039;51.802;5.710;2022-07-22T09:21:13;0.73;;;0.50;;
12660;SDS011;39039;51.802;5.710;2022-07-22T09:23:42;1.23;;;0.50;;
12660;SDS011;39039;51.802;5.710;2022-07-22T09:26:11;0.98;;;0.50;;
12660;SDS011;39039;51.802;5.710;2022-07-22T09:28:56;1.25;;;0.50;;
12660;SDS011;39039;51.802;5.710;2022-07-22T09:31:24;2.70;;;0.90;;
12660;SDS011;39039;51.802;5.710;2022-07-22T09:33:51;1.73;;;0.80;;
12660;SDS011;39039;51.802;5.710;2022-07-22T09:36:19;1.95;;;0.60;;
12660;SDS011;39039;51.802;5.710;2022-07-22T09:38:47;1.58;;;0.50;;
12660;SDS011;39039;51.802;5.710;2022-07-22T09:41:14;2.03;;;0.73;;
12660;SDS011;39039;51.802;5.710;2022-07-22T09:43:41;2.97;;;0.65;;
12660;SDS011;39039;51.802;5.710;2022-07-22T09:46:09;1.38;;;0.68;;
12660;SDS011;39039;51.802;5.710;2022-07-22T09:48:36;1.90;;;0.60;;
12660;SDS011;39039;51.802;5.710;2022-07-22T09:51:04;1.20;;;0.65;;
12660;SDS011;39039;51.802;5.710;2022-07-22T09:53:31;1.25;;;0.60;;
12660;SDS011;39039;51.802;5.710;2022-07-22T09:56:01;2.65;;;0.60;;
12660;SDS011;39039;51.802;5.710;2022-07-22T09:58:28;1.75;;;0.63;;
12660;SDS011;39039;51.802;5.710;2022-07-22T10:00:57;1.92;;;0.85;;
12660;SDS011;39039;51.802;5.710;2022-07-22T10:03:26;1.63;;;0.80;;
12660;SDS011;39039;51.802;5.710;2022-07-22T10:05:54;2.38;;;0.65;;
12660;SDS011;39039;51.802;5.710;2022-07-22T10:08:21;3.15;;;1.00;;
12660;SDS011;39039;51.802;5.710;2022-07-22T10:10:48;4.50;;;1.27;;
12660;SDS011;39039;51.802;5.710;2022-07-22T10:13:17;3.97;;;1.35;;
12660;SDS011;39039;51.802;5.710;2022-07-22T10:15:45;2.10;;;0.80;;
12660;SDS011;39039;51.802;5.710;2022-07-22T10:18:13;1.77;;;0.90;;
12660;SDS011;39039;51.802;5.710;2022-07-22T10:20:40;2.13;;;1.15;;
12660;SDS011;39039;51.802;5.710;2022-07-22T10:23:07;1.83;;;0.88;;
12660;SDS011;39039;51.802;5.710;2022-07-22T10:25:47;3.38;;;0.80;;
12660;SDS011;39039;51.802;5.710;2022-07-22T10:28:21;1.45;;;0.85;;
12660;SDS011;39039;51.802;5.710;2022-07-22T10:30:48;4.55;;;1.10;;
12660;SDS011;39039;51.802;5.710;2022-07-22T10:33:16;3.58;;;1.10;;
12660;SDS011;39039;51.802;5.710;2022-07-22T10:35:52;1.73;;;1.10;;
12660;SDS011;39039;51.802;5.710;2022-07-22T10:38:20;2.50;;;1.02;;
12660;SDS011;39039;51.802;5.710;2022-07-22T10:40:49;2.17;;;1.05;;
12660;SDS011;39039;51.802;5.710;2022-07-22T10:43:16;1.98;;;1.25;;
12660;SDS011;39039;51.802;5.710;2022-07-22T10:45:46;2.90;;;1.23;;
12660;SDS011;39039;51.802;5.710;2022-07-22T10:48:14;4.45;;;1.25;;
12660;SDS011;39039;51.802;5.710;2022-07-22T10:50:46;1.52;;;0.88;;
12660;SDS011;39039;51.802;5.710;2022-07-22T10:53:15;1.50;;;0.70;;
12660;SDS011;39039;51.802;5.710;2022-07-22T10:56:03;3.47;;;1.10;;
12660;SDS011;39039;51.802;5.710;2022-07-22T10:58:46;2.40;;;1.00;;
12660;SDS011;39039;51.802;5.710;2022-07-22T11:01:15;2.90;;;1.17;;
12660;SDS011;39039;51.802;5.710;2022-07-22T11:03:44;1.88;;;1.02;;
12660;SDS011;39039;51.802;5.710;2022-07-22T11:06:12;1.33;;;0.68;;
12660;SDS011;39039;51.802;5.710;2022-07-22T11:08:39;3.35;;;1.02;;
12660;SDS011;39039;51.802;5.710;2022-07-22T11:11:07;2.40;;;1.00;;
12660;SDS011;39039;51.802;5.710;2022-07-22T11:13:39;2.60;;;0.90;;
12660;SDS011;39039;51.802;5.710;2022-07-22T11:16:14;2.90;;;0.90;;
12660;SDS011;39039;51.802;5.710;2022-07-22T11:18:50;2.85;;;1.48;;
12660;SDS011;39039;51.802;5.710;2022-07-22T11:21:18;1.48;;;0.70;;
12660;SDS011;39039;51.802;5.710;2022-07-22T11:23:47;2.10;;;1.05;;
12660;SDS011;39039;51.802;5.710;2022-07-22T11:26:15;1.85;;;1.15;;
12660;SDS011;39039;51.802;5.710;2022-07-22T11:28:43;1.63;;;1.15;;
12660;SDS011;39039;51.802;5.710;2022-07-22T11:31:10;1.35;;;0.68;;
12660;SDS011;39039;51.802;5.710;2022-07-22T11:33:41;4.22;;;1.10;;
12660;SDS011;39039;51.802;5.710;2022-07-22T11:36:09;3.28;;;1.23;;
12660;SDS011;39039;51.802;5.710;2022-07-22T11:41:21;2.50;;;1.10;;
12660;SDS011;39039;51.802;5.710;2022-07-22T11:43:48;6.43;;;2.47;;
12660;SDS011;39039;51.802;5.710;2022-07-22T11:46:17;4.97;;;1.30;;
12660;SDS011;39039;51.802;5.710;2022-07-22T11:48:46;2.78;;;1.50;;
12660;SDS011;39039;51.802;5.710;2022-07-22T11:51:13;2.28;;;1.30;;
12660;SDS011;39039;51.802;5.710;2022-07-22T11:53:41;2.25;;;1.30;;
12660;SDS011;39039;51.802;5.710;2022-07-22T11:56:09;4.88;;;1.48;;
12660;SDS011;39039;51.802;5.710;2022-07-22T11:58:37;1.77;;;1.13;;
12660;SDS011;39039;51.802;5.710;2022-07-22T12:01:04;2.88;;;1.20;;
12660;SDS011;39039;51.802;5.710;2022-07-22T12:03:32;2.40;;;1.17;;
12660;SDS011;39039;51.802;5.710;2022-07-22T12:06:01;4.25;;;1.20;;
12660;SDS011;39039;51.802;5.710;2022-07-22T12:08:28;2.42;;;1.20;;
12660;SDS011;39039;51.802;5.710;2022-07-22T12:10:56;2.40;;;1.13;;
12660;SDS011;39039;51.802;5.710;2022-07-22T12:13:27;3.28;;;1.20;;
12660;SDS011;39039;51.802;5.710;2022-07-22T12:15:54;3.58;;;1.52;;
12660;SDS011;39039;51.802;5.710;2022-07-22T12:18:22;2.28;;;1.20;;
12660;SDS011;39039;51.802;5.710;2022-07-22T12:20:50;3.72;;;1.38;;
12660;SDS011;39039;51.802;5.710;2022-07-22T12:23:18;4.03;;;1.48;;
12660;SDS011;39039;51.802;5.710;2022-07-22T12:25:50;7.28;;;1.15;;
12660;SDS011;39039;51.802;5.710;2022-07-22T12:28:17;4.18;;;1.20;;
12660;SDS011;39039;51.802;5.710;2022-07-22T12:30:44;1.48;;;1.17;;
12660;SDS011;39039;51.802;5.710;2022-07-22T12:33:12;2.78;;;1.20;;
12660;SDS011;39039;51.802;5.710;2022-07-22T12:35:40;4.53;;;1.15;;
12660;SDS011;39039;51.802;5.710;2022-07-22T12:38:07;2.92;;;1.13;;
12660;SDS011;39039;51.802;5.710;2022-07-22T12:40:36;2.55;;;1.08;;
12660;SDS011;39039;51.802;5.710;2022-07-22T12:43:03;4.28;;;1.02;;
12660;SDS011;39039;51.802;5.710;2022-07-22T12:45:31;3.05;;;1.00;;
12660;SDS011;39039;51.802;5.710;2022-07-22T12:48:04;2.80;;;1.27;;
12660;SDS011;39039;51.802;5.710;2022-07-22T12:50:33;3.35;;;1.10;;
12660;SDS011;39039;51.802;5.710;2022-07-22T12:53:02;2.17;;;1.10;;
12660;SDS011;39039;51.802;5.710;2022-07-22T12:55:30;2.17;;;1.23;;
12660;SDS011;39039;51.802;5.710;2022-07-22T12:58:00;2.78;;;1.00;;
12660;SDS011;39039;51.802;5.710;2022-07-22T13:00:27;2.65;;;1.33;;
12660;SDS011;39039;51.802;5.710;2022-07-22T13:02:55;3.45;;;1.33;;
12660;SDS011;39039;51.802;5.710;2022-07-22T13:05:22;5.78;;;1.65;;
12660;SDS011;39039;51.802;5.710;2022-07-22T13:07:50;2.83;;;1.17;;
12660;SDS011;39039;51.802;5.710;2022-07-22T13:10:18;2.95;;;1.13;;
12660;SDS011;39039;51.802;5.710;2022-07-22T13:12:46;3.38;;;1.23;;
12660;SDS011;39039;51.802;5.710;2022-07-22T13:15:14;2.92;;;1.13;;
12660;SDS011;39039;51.802;5.710;2022-07-22T13:17:41;1.92;;;1.05;;
12660;SDS011;39039;51.802;5.710;2022-07-22T13:20:09;2.95;;;1.10;;
12660;SDS011;39039;51.802;5.710;2022-07-22T13:22:37;2.40;;;0.82;;
12660;SDS011;39039;51.802;5.710;2022-07-22T13:25:05;3.35;;;1.55;;
12660;SDS011;39039;51.802;5.710;2022-07-22T13:27:32;3.70;;;1.25;;
12660;SDS011;39039;51.802;5.710;2022-07-22T13:29:59;1.67;;;1.15;;
12660;SDS011;39039;51.802;5.710;2022-07-22T13:32:27;2.35;;;1.00;;
12660;SDS011;39039;51.802;5.710;2022-07-22T13:34:55;2.63;;;1.02;;
12660;SDS011;39039;51.802;5.710;2022-07-22T13:37:22;1.65;;;1.20;;
12660;SDS011;39039;51.802;5.710;2022-07-22T13:39:49;3.45;;;1.25;;
12660;SDS011;39039;51.802;5.710;2022-07-22T13:42:16;3.17;;;1.25;;
12660;SDS011;39039;51.802;5.710;2022-07-22T13:44:44;2.17;;;1.02;;
12660;SDS011;39039;51.802;5.710;2022-07-22T13:47:11;3.83;;;1.30;;
12660;SDS011;39039;51.802;5.710;2022-07-22T13:49:40;3.25;;;0.95;;
12660;SDS011;39039;51.802;5.710;2022-07-22T13:52:07;3.70;;;1.33;;
12660;SDS011;39039;51.802;5.710;2022-07-22T13:54:34;2.80;;;1.23;;
12660;SDS011;39039;51.802;5.710;2022-07-22T13:57:01;1.70;;;1.10;;
12660;SDS011;39039;51.802;5.710;2022-07-22T13:59:28;3.25;;;1.15;;
12660;SDS011;39039;51.802;5.710;2022-07-22T14:01:55;4.85;;;1.80;;
12660;SDS011;39039;51.802;5.710;2022-07-22T14:04:23;1.83;;;0.73;;
12660;SDS011;39039;51.802;5.710;2022-07-22T14:06:51;1.40;;;0.98;;
12660;SDS011;39039;51.802;5.710;2022-07-22T14:09:18;2.10;;;1.20;;
12660;SDS011;39039;51.802;5.710;2022-07-22T14:11:45;4.10;;;1.30;;
12660;SDS011;39039;51.802;5.710;2022-07-22T14:14:12;1.83;;;0.95;;
12660;SDS011;39039;51.802;5.710;2022-07-22T14:16:40;2.95;;;1.10;;
12660;SDS011;39039;51.802;5.710;2022-07-22T14:19:07;7.72;;;1.48;;
12660;SDS011;39039;51.802;5.710;2022-07-22T14:21:35;1.63;;;0.80;;
12660;SDS011;39039;51.802;5.710;2022-07-22T14:24:04;2.90;;;0.80;;
12660;SDS011;39039;51.802;5.710;2022-07-22T14:26:31;10.00;;;1.25;;
12660;SDS011;39039;51.802;5.710;2022-07-22T14:28:58;1.73;;;1.13;;
12660;SDS011;39039;51.802;5.710;2022-07-22T14:31:25;3.20;;;1.08;;
12660;SDS011;39039;51.802;5.710;2022-07-22T14:33:53;2.90;;;1.13;;
12660;SDS011;39039;51.802;5.710;2022-07-22T14:36:20;4.47;;;1.60;;
12660;SDS011;39039;51.802;5.710;2022-07-22T14:38:47;2.72;;;1.10;;
12660;SDS011;39039;51.802;5.710;2022-07-22T14:41:17;5.28;;;1.20;;
12660;SDS011;39039;51.802;5.710;2022-07-22T14:43:44;3.13;;;1.20;;
12660;SDS011;39039;51.802;5.710;2022-07-22T14:46:11;3.80;;;1.35;;
12660;SDS011;39039;51.802;5.710;2022-07-22T14:48:38;1.90;;;0.90;;
12660;SDS011;39039;51.802;5.710;2022-07-22T14:51:06;2.65;;;1.08;;
12660;SDS011;39039;51.802;5.710;2022-07-22T14:53:33;3.35;;;0.82;;